Time;durP1;ratioP1;P1;durP2;ratioP2;P2;SDS_P1;SDS_P2;PMS_P1;PMS_P2;Temp;Humidity;BMP_temperature;BMP_pressure;BME280_temperature;BME280_humidity;BME280_pressure;Samples;Min_cycle;Max_cycle;Signal;HPM_P1;HPM_P2
2023/07/20 00:01:48;;;;;;;6.83;1.77;;;22.10;8.30;;;;;;5025502;28;20525;-65
2023/07/20 00:04:15;;;;;;;7.07;2.00;;;22.10;8.50;;;;;;5028431;28;20567;-65
2023/07/20 00:06:42;;;;;;;7.43;2.17;;;22.00;8.30;;;;;;5029948;28;20506;-65
2023/07/20 00:09:09;;;;;;;4.50;1.30;;;22.00;8.80;;;;;;5023188;28;20498;-66
2023/07/20 00:11:38;;;;;;;4.20;1.50;;;22.00;8.30;;;;;;5025572;28;20883;-66
2023/07/20 00:14:05;;;;;;;8.40;2.00;;;22.00;8.20;;;;;;5024808;28;20825;-66
2023/07/20 00:16:32;;;;;;;5.37;1.40;;;22.00;7.90;;;;;;5026546;28;20474;-66
2023/07/20 00:19:00;;;;;;;6.13;1.70;;;22.00;7.70;;;;;;5021878;28;20467;-66
2023/07/20 00:21:27;;;;;;;5.23;1.77;;;22.00;7.70;;;;;;5027437;28;20459;-66
2023/07/20 00:23:54;;;;;;;6.70;1.90;;;22.00;7.50;;;;;;5023920;28;20494;-66
2023/07/20 00:26:20;;;;;;;6.20;1.70;;;22.00;7.40;;;;;;5026129;28;20473;-65
2023/07/20 00:28:47;;;;;;;6.70;1.80;;;22.00;7.30;;;;;;5023947;28;20843;-66
2023/07/20 00:31:14;;;;;;;6.80;1.77;;;22.00;7.40;;;;;;5018635;28;20479;-66
2023/07/20 00:33:40;;;;;;;7.63;1.93;;;22.00;7.50;;;;;;5007430;28;20488;-65
2023/07/20 00:36:09;;;;;;;9.20;1.90;;;21.90;7.70;;;;;;5004358;28;20460;-66
2023/07/20 00:38:36;;;;;;;7.17;1.90;;;21.90;7.70;;;;;;5005876;28;20964;-66
2023/07/20 00:41:02;;;;;;;7.30;1.53;;;21.90;7.80;;;;;;5007978;28;20483;-66
2023/07/20 00:43:29;;;;;;;5.60;2.00;;;21.90;8.00;;;;;;5007755;28;20483;-66
2023/07/20 00:45:56;;;;;;;5.93;1.97;;;21.90;7.90;;;;;;5005876;28;20463;-66
2023/07/20 00:48:24;;;;;;;7.17;1.63;;;21.90;7.60;;;;;;5002013;28;20745;-66
2023/07/20 00:50:51;;;;;;;5.23;1.40;;;21.80;7.50;;;;;;5005147;28;20479;-66
2023/07/20 00:53:20;;;;;;;6.47;1.47;;;21.80;7.70;;;;;;5007060;28;20887;-66
2023/07/20 00:55:47;;;;;;;8.93;2.77;;;21.80;7.90;;;;;;5010500;23;20507;-63
2023/07/20 00:58:13;;;;;;;4.80;1.67;;;21.80;8.50;;;;;;4987856;28;20996;-64
2023/07/20 01:00:40;;;;;;;6.87;2.13;;;21.70;7.90;;;;;;4984561;28;20496;-64
2023/07/20 01:03:07;;;;;;;6.03;1.57;;;21.70;8.10;;;;;;4980607;28;20904;-64
2023/07/20 01:05:41;;;;;;;5.53;1.83;;;21.60;8.00;;;;;;4967533;28;20473;-64
2023/07/20 01:08:15;;;;;;;7.07;1.43;;;21.60;8.30;;;;;;4962409;28;20476;-64
2023/07/20 01:10:51;;;;;;;5.47;2.03;;;21.50;8.60;;;;;;4962996;28;20482;-65
2023/07/20 01:13:19;;;;;;;7.00;1.90;;;21.40;8.90;;;;;;4963815;28;20480;-65
2023/07/20 01:15:51;;;;;;;5.73;2.10;;;21.30;9.10;;;;;;4966459;28;20569;-65
2023/07/20 01:18:18;;;;;;;6.73;2.10;;;21.20;9.10;;;;;;4962290;28;20808;-65
2023/07/20 01:20:45;;;;;;;5.97;2.40;;;21.20;9.30;;;;;;4967893;28;20536;-65
2023/07/20 01:23:40;;;;;;;12.40;2.17;;;21.10;9.30;;;;;;4967233;28;20480;-65
2023/07/20 01:26:23;;;;;;;6.30;1.97;;;21.10;9.40;;;;;;4968742;28;20470;-65
2023/07/20 01:29:21;;;;;;;6.53;2.60;;;21.10;9.60;;;;;;4961371;28;20468;-65
2023/07/20 01:31:52;;;;;;;6.53;2.57;;;21.10;9.60;;;;;;4977846;28;20859;-65
2023/07/20 01:34:20;;;;;;;6.90;2.00;;;21.10;9.40;;;;;;4984408;28;20854;-65
2023/07/20 01:36:49;;;;;;;6.27;2.53;;;21.00;9.50;;;;;;4985162;28;20475;-65
2023/07/20 01:39:16;;;;;;;7.70;2.63;;;20.90;9.70;;;;;;4983001;28;20771;-64
2023/07/20 01:41:43;;;;;;;7.97;2.17;;;20.90;9.90;;;;;;4985560;28;20813;-64
2023/07/20 01:44:10;;;;;;;7.60;2.90;;;20.80;10.10;;;;;;4985631;28;20492;-64
2023/07/20 01:46:36;;;;;;;7.87;2.10;;;20.70;10.40;;;;;;4983386;28;20473;-65
2023/07/20 01:49:04;;;;;;;8.43;2.23;;;20.60;10.70;;;;;;4985436;28;20468;-64
2023/07/20 01:51:31;;;;;;;5.80;2.53;;;20.40;11.50;;;;;;4990677;28;20477;-64
2023/07/20 01:53:58;;;;;;;7.13;2.57;;;20.30;11.30;;;;;;4989508;28;20488;-64
2023/07/20 01:56:25;;;;;;;6.90;2.50;;;20.30;11.40;;;;;;4986092;28;20464;-64
2023/07/20 01:58:51;;;;;;;7.07;2.63;;;20.20;11.40;;;;;;4989458;28;20479;-64
2023/07/20 02:01:18;;;;;;;8.20;2.20;;;20.20;11.20;;;;;;4988295;28;20798;-65
2023/07/20 02:03:45;;;;;;;5.10;2.20;;;20.20;11.30;;;;;;4984969;28;20503;-65
2023/07/20 02:06:13;;;;;;;7.53;2.17;;;20.20;11.30;;;;;;4989474;28;20474;-64
2023/07/20 02:08:39;;;;;;;7.63;2.33;;;20.20;11.10;;;;;;4986331;28;20469;-64
2023/07/20 02:11:06;;;;;;;5.10;2.00;;;20.20;11.10;;;;;;4993454;28;20612;-64
2023/07/20 02:13:33;;;;;;;5.67;2.00;;;20.20;11.00;;;;;;4984021;28;20488;-65
2023/07/20 02:15:59;;;;;;;6.63;2.70;;;20.20;11.00;;;;;;4990928;28;20464;-64
2023/07/20 02:18:26;;;;;;;5.87;2.30;;;20.20;11.10;;;;;;4990015;28;21208;-64
2023/07/20 02:20:54;;;;;;;6.30;2.57;;;20.30;10.70;;;;;;4990230;28;20467;-64
2023/07/20 02:23:22;;;;;;;6.60;3.07;;;20.30;10.20;;;;;;4987003;28;21688;-64
2023/07/20 02:25:49;;;;;;;5.43;1.70;;;20.30;9.90;;;;;;4988773;28;20475;-65
2023/07/20 02:28:16;;;;;;;7.90;2.37;;;20.30;9.70;;;;;;4987516;28;20467;-64
2023/07/20 02:30:42;;;;;;;5.33;2.00;;;20.30;9.50;;;;;;4992755;28;20472;-64
2023/07/20 02:33:09;;;;;;;6.70;2.60;;;20.20;9.30;;;;;;4986413;28;20461;-64
2023/07/20 02:35:36;;;;;;;9.63;2.43;;;20.20;9.30;;;;;;4990863;28;20459;-64
2023/07/20 02:38:03;;;;;;;5.90;2.17;;;20.20;9.10;;;;;;4993162;28;20471;-64
2023/07/20 02:40:31;;;;;;;6.53;2.60;;;20.20;9.30;;;;;;4989097;28;20460;-64
2023/07/20 02:42:57;;;;;;;6.17;2.47;;;20.10;9.30;;;;;;4989699;28;21407;-64
2023/07/20 02:45:24;;;;;;;4.83;2.23;;;20.10;9.30;;;;;;4995318;28;20479;-64
2023/07/20 02:47:51;;;;;;;8.87;2.90;;;20.00;9.40;;;;;;4988019;28;20500;-64
2023/07/20 02:50:18;;;;;;;5.57;2.33;;;20.00;9.50;;;;;;4994660;28;20473;-64
2023/07/20 02:52:45;;;;;;;7.40;2.70;;;19.80;9.90;;;;;;4988866;28;20840;-64
2023/07/20 02:55:11;;;;;;;5.60;2.17;;;19.80;10.20;;;;;;4987609;28;20872;-64
2023/07/20 02:57:39;;;;;;;6.20;2.33;;;19.70;10.30;;;;;;4992023;28;20461;-64
2023/07/20 03:00:07;;;;;;;6.30;2.60;;;19.70;10.20;;;;;;4985745;28;21527;-64
2023/07/20 03:02:34;;;;;;;7.93;2.20;;;19.70;10.10;;;;;;4991173;28;20477;-64
2023/07/20 03:05:05;;;;;;;6.40;2.33;;;19.70;10.20;;;;;;4987489;28;21014;-64
2023/07/20 03:07:32;;;;;;;5.47;2.20;;;19.60;10.30;;;;;;4985037;28;20457;-64
2023/07/20 03:09:59;;;;;;;8.13;2.70;;;19.60;10.60;;;;;;4984964;28;20464;-64
2023/07/20 03:12:25;;;;;;;7.87;2.40;;;19.50;10.90;;;;;;4988910;28;20485;-65
2023/07/20 03:14:54;;;;;;;5.47;2.27;;;19.40;11.20;;;;;;5015611;22;20856;-67
2023/07/20 03:17:21;;;;;;;5.97;2.30;;;19.30;11.80;;;;;;5003755;28;20468;-67
2023/07/20 03:19:47;;;;;;;7.83;2.60;;;19.30;11.80;;;;;;5010579;28;20503;-67
2023/07/20 03:22:14;;;;;;;8.93;3.20;;;19.30;12.00;;;;;;5007518;28;20491;-67
2023/07/20 03:24:41;;;;;;;6.60;2.63;;;19.20;12.20;;;;;;5006828;28;20506;-67
2023/07/20 03:27:08;;;;;;;9.33;3.10;;;19.10;12.30;;;;;;5002786;28;20486;-67
2023/07/20 03:29:34;;;;;;;5.43;2.57;;;19.00;12.30;;;;;;5005127;28;20467;-67
2023/07/20 03:32:03;;;;;;;7.30;2.93;;;19.00;12.40;;;;;;4999397;28;21034;-67
2023/07/20 03:34:29;;;;;;;6.67;2.60;;;19.00;12.30;;;;;;5003489;28;20488;-68
2023/07/20 03:36:56;;;;;;;5.80;2.80;;;18.90;12.30;;;;;;5006526;28;20467;-68
2023/07/20 03:39:23;;;;;;;12.83;3.87;;;18.90;12.30;;;;;;5005584;28;20491;-68
2023/07/20 03:41:50;;;;;;;5.23;2.40;;;18.80;12.40;;;;;;5005657;28;20471;-67
2023/07/20 03:44:17;;;;;;;6.10;2.70;;;18.80;12.50;;;;;;5007131;28;20483;-67
2023/07/20 03:46:44;;;;;;;8.30;2.73;;;18.70;12.50;;;;;;5001634;28;20499;-67
2023/07/20 03:49:12;;;;;;;7.03;2.90;;;18.70;12.70;;;;;;5006913;28;20463;-67
2023/07/20 03:51:39;;;;;;;9.23;3.07;;;18.70;12.70;;;;;;5006012;28;20480;-67
2023/07/20 03:54:06;;;;;;;10.20;3.93;;;18.70;12.80;;;;;;4999726;28;20574;-67
2023/07/20 03:56:35;;;;;;;8.37;2.90;;;18.60;13.10;;;;;;5006601;28;20471;-67
2023/07/20 03:59:02;;;;;;;8.20;2.60;;;18.60;13.50;;;;;;5005421;28;20522;-67
2023/07/20 04:01:28;;;;;;;6.77;2.70;;;18.50;13.50;;;;;;5004544;28;20475;-67
2023/07/20 04:03:55;;;;;;;7.80;2.93;;;18.50;13.70;;;;;;5002984;28;20495;-68
2023/07/20 04:06:24;;;;;;;6.73;2.47;;;18.50;13.70;;;;;;4996142;28;20497;-67
2023/07/20 04:08:50;;;;;;;8.23;2.83;;;18.50;13.80;;;;;;4999450;28;20475;-66
2023/07/20 04:11:17;;;;;;;6.40;2.87;;;18.40;14.10;;;;;;5001522;28;20488;-69
2023/07/20 04:13:44;;;;;;;6.07;3.23;;;18.40;14.50;;;;;;5000697;28;20506;-68
2023/07/20 04:16:10;;;;;;;8.37;2.53;;;18.50;14.70;;;;;;5001981;28;20472;-69
2023/07/20 04:18:37;;;;;;;6.87;3.50;;;18.50;14.80;;;;;;5003979;28;20475;-69
2023/07/20 04:21:04;;;;;;;6.17;3.00;;;18.40;14.90;;;;;;5003685;28;20467;-70
2023/07/20 04:23:32;;;;;;;7.13;2.97;;;18.50;15.00;;;;;;5002192;28;20499;-71
2023/07/20 04:25:58;;;;;;;6.27;2.63;;;18.40;15.10;;;;;;5000930;28;20475;-70
2023/07/20 04:28:25;;;;;;;9.00;3.43;;;18.40;15.20;;;;;;5002739;28;20934;-71
2023/07/20 04:30:53;;;;;;;6.73;3.27;;;18.40;15.40;;;;;;5004283;28;20483;-70
2023/07/20 04:33:20;;;;;;;9.10;3.20;;;18.40;15.80;;;;;;5001936;28;20491;-70
2023/07/20 04:35:50;;;;;;;7.60;2.87;;;18.50;16.10;;;;;;5004094;28;20478;-69
2023/07/20 04:38:18;;;;;;;8.00;3.43;;;18.90;16.00;;;;;;5003725;28;21036;-70
2023/07/20 04:40:47;;;;;;;6.03;2.47;;;19.20;14.90;;;;;;5000228;28;20496;-67
2023/07/20 04:43:14;;;;;;;6.27;2.97;;;19.60;14.10;;;;;;5000331;28;20464;-68
2023/07/20 04:45:40;;;;;;;10.40;3.70;;;19.80;13.40;;;;;;5005198;28;21323;-68
2023/07/20 04:48:13;;;;;;;7.40;3.00;;;19.70;13.40;;;;;;4998601;28;20457;-68
2023/07/20 04:50:41;;;;;;;7.87;3.30;;;19.70;13.60;;;;;;5002355;28;20463;-68
2023/07/20 04:53:08;;;;;;;7.00;2.97;;;19.60;13.90;;;;;;5000290;28;20489;-67
2023/07/20 04:55:36;;;;;;;7.17;3.30;;;19.70;13.80;;;;;;5008661;28;20466;-67
2023/07/20 04:58:04;;;;;;;6.53;2.50;;;20.10;13.50;;;;;;5004971;28;20467;-67
2023/07/20 05:00:31;;;;;;;7.83;2.70;;;21.60;10.90;;;;;;5004755;28;20961;-68
2023/07/20 05:02:58;;;;;;;7.80;2.90;;;23.40;7.30;;;;;;5005378;28;20463;-67
2023/07/20 05:05:24;;;;;;;7.10;2.67;;;24.90;3.30;;;;;;5002009;28;20475;-68
2023/07/20 05:07:51;;;;;;;6.40;3.17;;;26.20;1.00;;;;;;5002879;28;20860;-67
2023/07/20 05:10:18;;;;;;;6.00;2.43;;;26.10;1.00;;;;;;5004293;28;20469;-68
2023/07/20 05:12:45;;;;;;;5.80;3.03;;;25.50;1.00;;;;;;5004321;28;21034;-68
2023/07/20 05:15:13;;;;;;;5.90;2.67;;;24.80;1.20;;;;;;5002651;28;20506;-69
2023/07/20 05:17:40;;;;;;;7.97;2.30;;;24.40;1.90;;;;;;5006384;28;20713;-68
2023/07/20 05:20:09;;;;;;;6.33;2.53;;;24.00;2.50;;;;;;5004672;28;20469;-68
2023/07/20 05:22:36;;;;;;;5.50;2.60;;;23.80;2.90;;;;;;5005804;28;20962;-68
2023/07/20 05:25:03;;;;;;;8.40;2.73;;;23.70;3.10;;;;;;5008439;28;20482;-67
2023/07/20 05:27:30;;;;;;;7.20;2.80;;;24.10;3.10;;;;;;5002377;28;20467;-68
2023/07/20 05:29:57;;;;;;;7.53;3.20;;;26.10;1.00;;;;;;5004013;28;20473;-68
2023/07/20 05:32:25;;;;;;;8.07;2.47;;;28.30;1.00;;;;;;5011513;28;20480;-68
2023/07/20 05:34:54;;;;;;;6.60;2.37;;;30.40;1.00;;;;;;5005257;28;20486;-68
2023/07/20 05:37:20;;;;;;;5.70;2.77;;;31.80;1.00;;;;;;5009179;28;20470;-69
2023/07/20 05:39:47;;;;;;;6.50;2.40;;;32.40;1.00;;;;;;5005885;28;20463;-67
2023/07/20 05:42:14;;;;;;;5.97;2.20;;;31.50;1.00;;;;;;5004477;28;20474;-67
2023/07/20 05:44:41;;;;;;;6.37;2.70;;;30.20;1.00;;;;;;5009359;28;20495;-68
2023/07/20 05:47:08;;;;;;;6.37;2.50;;;29.00;1.00;;;;;;5006463;28;20812;-68
2023/07/20 05:49:36;;;;;;;5.90;2.47;;;28.00;1.00;;;;;;5005114;28;20471;-68
2023/07/20 05:52:03;;;;;;;6.60;2.80;;;27.40;1.00;;;;;;5005410;28;20490;-69
2023/07/20 05:54:30;;;;;;;5.80;2.50;;;26.70;1.00;;;;;;5009180;28;20494;-69
2023/07/20 05:56:57;;;;;;;5.60;2.60;;;26.30;1.00;;;;;;5009313;28;20467;-69
2023/07/20 05:59:23;;;;;;;7.37;2.90;;;26.00;1.00;;;;;;5007774;28;20464;-68
2023/07/20 06:01:50;;;;;;;7.30;2.37;;;25.70;1.00;;;;;;5003695;28;20502;-68
2023/07/20 06:04:17;;;;;;;7.60;2.30;;;25.50;1.00;;;;;;5004888;28;20487;-68
2023/07/20 06:06:46;;;;;;;9.40;2.63;;;25.30;1.00;;;;;;5007286;28;20463;-68
2023/07/20 06:09:13;;;;;;;6.60;2.33;;;25.10;1.00;;;;;;5006318;28;20494;-69
2023/07/20 06:11:40;;;;;;;6.30;3.13;;;24.90;1.00;;;;;;5006169;28;21002;-68
2023/07/20 06:14:06;;;;;;;7.60;2.90;;;24.70;1.00;;;;;;5008834;28;20499;-69
2023/07/20 06:16:33;;;;;;;9.73;3.10;;;24.60;1.00;;;;;;5008048;28;20486;-68
2023/07/20 06:19:00;;;;;;;5.73;2.50;;;24.60;1.20;;;;;;5011927;28;20467;-69
2023/07/20 06:21:27;;;;;;;5.97;2.67;;;24.40;1.00;;;;;;5016239;22;20842;-64
2023/07/20 06:23:55;;;;;;;9.57;2.43;;;24.40;1.00;;;;;;5006989;28;20479;-65
2023/07/20 06:26:22;;;;;;;7.30;2.60;;;24.30;1.00;;;;;;5000680;28;20479;-65
2023/07/20 06:28:49;;;;;;;6.00;2.63;;;24.20;1.00;;;;;;5006476;28;20467;-66
2023/07/20 06:31:15;;;;;;;8.23;2.40;;;24.10;1.00;;;;;;5007345;28;20674;-66
2023/07/20 06:33:42;;;;;;;6.83;2.50;;;24.10;1.00;;;;;;5006301;28;20495;-65
2023/07/20 06:36:09;;;;;;;5.70;2.63;;;24.00;1.20;;;;;;4997036;28;20468;-68
2023/07/20 06:38:36;;;;;;;7.07;2.80;;;24.00;1.30;;;;;;5001169;28;20470;-67
2023/07/20 06:41:04;;;;;;;8.30;2.47;;;24.10;1.30;;;;;;5002072;28;20547;-67
2023/07/20 06:43:31;;;;;;;8.13;3.10;;;24.10;1.00;;;;;;5006396;28;20490;-65
2023/07/20 06:45:57;;;;;;;6.20;2.40;;;24.10;1.00;;;;;;5006734;28;20475;-65
2023/07/20 06:48:24;;;;;;;8.37;3.10;;;24.30;1.10;;;;;;5005409;28;20479;-65
2023/07/20 06:50:51;;;;;;;6.90;2.30;;;24.50;1.00;;;;;;5010320;28;20467;-65
2023/07/20 06:53:18;;;;;;;5.40;2.60;;;24.60;1.00;;;;;;5005510;28;20483;-64
2023/07/20 06:55:44;;;;;;;7.60;2.67;;;24.80;1.00;;;;;;5004736;28;21068;-65
2023/07/20 06:58:13;;;;;;;7.20;2.67;;;25.00;1.00;;;;;;5004919;28;20471;-64
2023/07/20 07:00:39;;;;;;;9.47;2.93;;;25.10;1.00;;;;;;5007221;28;20837;-65
2023/07/20 07:03:07;;;;;;;7.10;2.50;;;25.30;1.00;;;;;;5008259;28;20472;-65
2023/07/20 07:05:37;;;;;;;5.10;2.40;;;25.30;1.00;;;;;;5002280;28;20602;-66
2023/07/20 07:08:04;;;;;;;6.97;2.10;;;25.30;1.00;;;;;;5005839;28;20956;-65
2023/07/20 07:10:31;;;;;;;5.77;2.40;;;25.30;1.00;;;;;;5008623;28;20941;-66
2023/07/20 07:12:57;;;;;;;7.83;2.83;;;25.30;1.00;;;;;;5001780;28;20491;-66
2023/07/20 07:15:26;;;;;;;6.43;2.23;;;25.30;1.00;;;;;;5002993;28;20994;-65
2023/07/20 07:17:53;;;;;;;5.27;2.47;;;25.30;1.00;;;;;;5006085;28;20970;-65
2023/07/20 07:20:19;;;;;;;5.90;2.57;;;25.30;1.00;;;;;;5003502;28;20470;-65
2023/07/20 07:22:46;;;;;;;6.63;2.50;;;25.40;1.00;;;;;;5006024;28;20471;-65
2023/07/20 07:25:13;;;;;;;11.53;2.70;;;25.70;1.00;;;;;;5006068;28;20480;-65
2023/07/20 07:27:40;;;;;;;6.70;2.60;;;26.10;1.00;;;;;;5007632;28;20482;-65
2023/07/20 07:30:08;;;;;;;5.70;2.43;;;26.50;1.00;;;;;;5005840;28;20468;-66
2023/07/20 07:32:36;;;;;;;8.07;3.37;;;28.60;1.00;;;;;;5004118;28;20494;-66
2023/07/20 07:35:02;;;;;;;6.63;2.20;;;32.80;1.00;;;;;;5004791;28;20480;-65
2023/07/20 07:37:29;;;;;;;5.30;2.10;;;36.70;1.00;;;;;;5003323;28;20903;-65
2023/07/20 07:39:56;;;;;;;4.80;2.03;;;39.70;1.00;;;;;;5006603;28;20891;-65
2023/07/20 07:42:23;;;;;;;5.60;1.87;;;42.10;1.00;;;;;;5008589;28;20468;-65
2023/07/20 07:44:50;;;;;;;5.70;1.90;;;44.30;1.00;;;;;;5005007;28;20483;-65
2023/07/20 07:47:16;;;;;;;5.80;2.13;;;45.60;1.00;;;;;;5003863;28;20460;-66
2023/07/20 07:49:44;;;;;;;4.80;2.00;;;47.10;1.00;;;;;;5002571;28;20468;-66
2023/07/20 07:52:11;;;;;;;5.30;1.90;;;48.20;1.00;;;;;;5003327;28;20716;-66
2023/07/20 07:54:38;;;;;;;4.87;1.60;;;48.40;1.00;;;;;;5001876;28;20483;-65
2023/07/20 07:57:05;;;;;;;4.80;1.87;;;47.30;1.00;;;;;;5007175;28;20966;-65
2023/07/20 07:59:36;;;;;;;6.90;1.57;;;46.30;1.00;;;;;;5004124;28;20460;-65
2023/07/20 08:02:03;;;;;;;4.13;1.70;;;45.10;1.00;;;;;;5005421;28;20472;-64
2023/07/20 08:04:30;;;;;;;4.50;2.13;;;43.70;1.00;;;;;;5006266;28;20836;-64
2023/07/20 08:06:58;;;;;;;5.17;1.60;;;43.00;1.00;;;;;;5005883;28;20463;-64
2023/07/20 08:09:25;;;;;;;4.73;1.90;;;42.90;1.00;;;;;;5006995;28;20502;-64
2023/07/20 08:11:52;;;;;;;4.80;1.63;;;42.70;1.00;;;;;;5008062;28;20975;-64
2023/07/20 08:14:20;;;;;;;5.50;2.07;;;42.90;1.00;;;;;;5004947;28;20494;-63
2023/07/20 08:16:47;;;;;;;5.43;1.97;;;43.70;1.00;;;;;;4999005;28;20520;-64
2023/07/20 08:19:14;;;;;;;4.67;1.90;;;44.00;1.00;;;;;;5001443;28;20459;-64
2023/07/20 08:21:40;;;;;;;4.00;1.90;;;45.00;1.00;;;;;;5006505;28;20471;-64
2023/07/20 08:24:09;;;;;;;4.60;2.00;;;45.70;1.00;;;;;;5005697;28;20870;-65
2023/07/20 08:26:35;;;;;;;7.23;1.80;;;46.20;1.00;;;;;;5006511;28;20471;-66
2023/07/20 08:29:02;;;;;;;4.40;1.67;;;47.20;1.00;;;;;;5006384;28;20464;-65
2023/07/20 08:31:29;;;;;;;4.10;1.70;;;48.70;1.00;;;;;;5001922;28;20487;-65
2023/07/20 08:33:56;;;;;;;6.57;1.70;;;50.10;1.00;;;;;;5006596;28;20502;-66
2023/07/20 08:36:23;;;;;;;4.50;1.73;;;51.20;1.00;;;;;;5001794;28;20464;-65
2023/07/20 08:38:50;;;;;;;6.30;2.03;;;52.10;1.00;;;;;;5001067;28;20455;-66
2023/07/20 08:41:18;;;;;;;4.63;1.70;;;53.00;1.00;;;;;;5002910;28;20459;-67
2023/07/20 08:43:47;;;;;;;3.90;1.50;;;53.70;1.00;;;;;;5002637;28;21023;-66
2023/07/20 08:46:14;;;;;;;4.87;2.20;;;54.10;1.00;;;;;;5006562;28;20463;-65
2023/07/20 08:48:42;;;;;;;4.43;2.07;;;54.00;1.00;;;;;;5005568;28;20482;-65
2023/07/20 08:51:11;;;;;;;4.03;1.80;;;54.20;1.00;;;;;;5001927;28;20459;-67
2023/07/20 08:53:38;;;;;;;3.77;1.80;;;54.60;1.00;;;;;;5005545;28;20493;-67
2023/07/20 08:56:06;;;;;;;3.87;1.70;;;54.60;1.00;;;;;;5004139;28;20459;-67
2023/07/20 08:58:36;;;;;;;4.00;1.90;;;54.80;1.00;;;;;;5002676;28;20474;-67
2023/07/20 09:01:03;;;;;;;3.83;1.70;;;55.10;1.00;;;;;;5001124;28;21042;-67
2023/07/20 09:03:30;;;;;;;4.40;2.17;;;55.30;1.00;;;;;;5004750;28;20484;-67
2023/07/20 09:05:57;;;;;;;4.40;1.87;;;55.80;1.00;;;;;;5003873;28;20470;-68
2023/07/20 09:08:24;;;;;;;4.50;1.80;;;55.90;1.00;;;;;;4998904;28;20595;-67
2023/07/20 09:10:51;;;;;;;4.40;1.60;;;55.80;1.00;;;;;;5001813;28;20463;-68
2023/07/20 09:13:18;;;;;;;4.23;1.73;;;55.90;1.00;;;;;;4999962;28;20494;-68
2023/07/20 09:15:48;;;;;;;4.90;2.10;;;56.00;1.00;;;;;;5001185;28;20471;-67
2023/07/20 09:18:25;;;;;;;4.57;1.80;;;56.30;1.00;;;;;;5001896;28;20455;-68
2023/07/20 09:20:52;;;;;;;4.30;1.53;;;56.40;1.00;;;;;;5003207;28;21281;-68
2023/07/20 09:23:19;;;;;;;4.00;1.77;;;56.50;1.00;;;;;;5001777;28;20217;-67
2023/07/20 09:25:50;;;;;;;5.60;1.50;;;55.60;1.00;;;;;;5004002;28;20208;-67
2023/07/20 09:28:17;;;;;;;4.37;1.83;;;54.40;1.00;;;;;;5004021;28;20521;-67
2023/07/20 09:30:44;;;;;;;4.07;1.53;;;54.80;1.00;;;;;;5003487;28;20475;-67
2023/07/20 09:33:19;;;;;;;3.60;1.53;;;55.20;1.00;;;;;;5000398;28;20507;-67
2023/07/20 09:35:46;;;;;;;3.67;1.60;;;55.10;1.00;;;;;;5003734;28;20467;-67
2023/07/20 09:38:12;;;;;;;3.70;1.57;;;55.50;1.00;;;;;;4999585;28;20502;-67
2023/07/20 09:40:39;;;;;;;4.27;1.97;;;54.70;1.00;;;;;;5002083;28;20946;-67
2023/07/20 09:43:09;;;;;;;4.30;1.70;;;51.90;1.00;;;;;;5003310;28;20478;-68
2023/07/20 09:45:40;;;;;;;5.50;1.90;;;48.80;1.00;;;;;;5001975;28;20824;-67
2023/07/20 09:48:07;;;;;;;5.90;2.27;;;46.20;1.00;;;;;;5004908;28;20464;-67
2023/07/20 09:50:40;;;;;;;5.80;2.30;;;43.80;1.00;;;;;;4999816;28;20531;-67
2023/07/20 09:53:07;;;;;;;4.97;1.87;;;42.10;1.00;;;;;;5002899;28;21095;-67
2023/07/20 09:55:35;;;;;;;4.20;2.03;;;40.80;1.00;;;;;;5005023;28;20927;-68
2023/07/20 09:58:03;;;;;;;6.00;2.10;;;39.60;1.00;;;;;;5008125;28;20464;-66
2023/07/20 10:00:30;;;;;;;4.73;1.70;;;38.60;1.00;;;;;;5003467;28;20466;-67
2023/07/20 10:02:59;;;;;;;7.23;1.77;;;38.10;1.00;;;;;;5001312;28;20460;-67
2023/07/20 10:05:28;;;;;;;4.10;1.47;;;37.70;1.00;;;;;;5001078;28;20522;-67
2023/07/20 10:07:57;;;;;;;5.30;1.80;;;37.20;1.00;;;;;;5001889;28;20469;-66
2023/07/20 10:10:24;;;;;;;4.43;1.50;;;36.50;1.00;;;;;;5005793;28;20815;-67
2023/07/20 10:12:52;;;;;;;5.40;2.03;;;35.80;1.00;;;;;;5005058;28;20467;-67
2023/07/20 10:15:21;;;;;;;4.10;2.00;;;35.00;1.00;;;;;;5006183;28;20476;-67
2023/07/20 10:17:58;;;;;;;4.53;1.83;;;34.50;1.00;;;;;;5004866;28;20508;-67
2023/07/20 10:20:25;;;;;;;7.33;1.80;;;33.90;1.00;;;;;;5004580;28;20460;-68
2023/07/20 10:22:56;;;;;;;4.50;1.77;;;33.30;1.00;;;;;;5000359;28;20989;-67
2023/07/20 10:25:24;;;;;;;5.40;1.90;;;32.80;1.00;;;;;;5009213;28;20463;-66
2023/07/20 10:27:51;;;;;;;5.70;1.87;;;32.30;1.00;;;;;;5002980;28;20477;-66
2023/07/20 10:30:19;;;;;;;5.50;1.70;;;31.70;1.00;;;;;;5005000;28;20471;-66
2023/07/20 10:32:47;;;;;;;5.77;1.67;;;31.30;1.00;;;;;;5003670;28;20499;-66
2023/07/20 10:35:15;;;;;;;5.70;1.97;;;31.10;1.00;;;;;;4998537;28;20989;-66
2023/07/20 10:37:52;;;;;;;7.90;2.20;;;31.00;1.00;;;;;;5006586;28;20459;-66
2023/07/20 10:40:28;;;;;;;5.57;2.40;;;30.80;1.00;;;;;;5012371;28;20960;-67
2023/07/20 10:43:03;;;;;;;4.03;1.50;;;30.80;1.00;;;;;;5008954;28;20464;-67
2023/07/20 10:45:35;;;;;;;4.90;1.87;;;30.80;1.00;;;;;;5007499;28;20980;-67
2023/07/20 10:48:04;;;;;;;5.43;2.10;;;30.70;1.00;;;;;;5005258;28;20490;-66
2023/07/20 10:50:31;;;;;;;4.33;1.83;;;30.40;1.00;;;;;;5006404;28;20491;-67
2023/07/20 10:53:12;;;;;;;5.73;2.13;;;30.30;1.00;;;;;;5003761;28;21247;-67
2023/07/20 10:55:40;;;;;;;6.90;2.80;;;30.40;1.00;;;;;;5005780;28;20463;-66
2023/07/20 10:58:09;;;;;;;4.37;1.93;;;30.40;1.00;;;;;;5000467;28;20484;-66
2023/07/20 11:00:35;;;;;;;6.33;1.90;;;30.40;1.00;;;;;;5003790;28;20510;-66
2023/07/20 11:03:03;;;;;;;6.00;1.90;;;30.40;1.00;;;;;;5006022;28;20455;-65
2023/07/20 11:05:37;;;;;;;4.80;1.70;;;30.40;1.00;;;;;;5007426;28;20467;-67
2023/07/20 11:08:11;;;;;;;4.80;2.20;;;30.40;1.00;;;;;;5004441;28;20471;-66
2023/07/20 11:10:39;;;;;;;6.20;1.77;;;30.30;1.00;;;;;;5005045;28;20841;-67
2023/07/20 11:13:21;;;;;;;6.03;2.00;;;30.20;1.00;;;;;;5006268;28;20464;-66
2023/07/20 11:15:48;;;;;;;5.90;2.27;;;29.90;1.00;;;;;;5001092;28;20518;-67
2023/07/20 11:18:15;;;;;;;5.00;1.97;;;29.80;1.00;;;;;;5006849;28;20472;-67
2023/07/20 11:20:43;;;;;;;7.93;2.37;;;29.70;1.00;;;;;;5005333;28;20473;-67
2023/07/20 11:23:10;;;;;;;4.87;1.90;;;29.70;1.00;;;;;;5004942;28;20472;-68
2023/07/20 11:25:40;;;;;;;6.40;2.53;;;29.60;1.00;;;;;;5003191;28;20561;-67
2023/07/20 11:28:10;;;;;;;7.00;2.00;;;29.50;1.00;;;;;;5002510;28;20469;-67
2023/07/20 11:30:38;;;;;;;9.97;2.00;;;29.40;1.00;;;;;;5001076;28;20540;-69
2023/07/20 11:33:05;;;;;;;6.43;2.20;;;29.40;1.00;;;;;;5008707;28;20496;-67
2023/07/20 11:35:36;;;;;;;7.07;2.20;;;29.40;1.00;;;;;;5006412;28;20507;-67
2023/07/20 11:38:03;;;;;;;4.77;1.77;;;29.40;1.00;;;;;;5004087;28;20464;-67
2023/07/20 11:40:30;;;;;;;5.17;2.10;;;29.30;1.00;;;;;;5008209;28;20530;-68
2023/07/20 11:42:58;;;;;;;5.40;2.10;;;29.20;1.00;;;;;;5006117;28;21511;-68
2023/07/20 11:45:27;;;;;;;5.07;2.10;;;29.10;1.00;;;;;;5003196;28;20476;-68
2023/07/20 11:47:53;;;;;;;5.47;2.30;;;29.00;1.00;;;;;;5002532;28;20542;-68
2023/07/20 11:50:20;;;;;;;4.40;1.83;;;29.00;1.00;;;;;;5007052;28;20456;-68
2023/07/20 11:52:47;;;;;;;5.77;2.07;;;29.00;1.00;;;;;;5004873;28;20467;-68
2023/07/20 11:55:14;;;;;;;5.13;1.90;;;29.10;1.00;;;;;;5006738;28;20587;-68
2023/07/20 11:57:41;;;;;;;4.73;1.80;;;29.10;1.00;;;;;;5001979;28;20471;-68
2023/07/20 12:00:12;;;;;;;4.40;2.03;;;29.10;1.00;;;;;;5004983;28;20464;-71
2023/07/20 12:02:39;;;;;;;6.27;2.47;;;29.00;1.00;;;;;;5001052;28;20475;-72
2023/07/20 12:05:08;;;;;;;4.47;2.00;;;28.90;1.00;;;;;;5005755;28;20514;-73
2023/07/20 12:07:38;;;;;;;6.50;2.77;;;29.00;1.00;;;;;;4997734;28;20835;-72
2023/07/20 12:10:07;;;;;;;5.13;2.53;;;29.10;1.00;;;;;;5007298;28;21096;-72
2023/07/20 12:12:33;;;;;;;6.67;1.97;;;29.00;1.00;;;;;;5000851;28;20483;-72
2023/07/20 12:15:15;;;;;;;7.73;2.60;;;28.90;1.00;;;;;;5004429;28;20495;-72
2023/07/20 12:17:44;;;;;;;4.80;1.83;;;28.90;1.00;;;;;;5001935;28;20468;-70
2023/07/20 12:20:12;;;;;;;5.90;2.50;;;28.80;1.00;;;;;;5002467;28;20556;-70
2023/07/20 12:22:40;;;;;;;8.63;2.00;;;28.80;1.00;;;;;;5002404;28;20483;-70
2023/07/20 12:25:07;;;;;;;6.43;2.33;;;28.70;1.00;;;;;;5003968;28;20483;-70
2023/07/20 12:27:36;;;;;;;5.63;1.90;;;28.70;1.00;;;;;;5007847;28;20471;-70
2023/07/20 12:30:04;;;;;;;8.33;2.30;;;28.60;1.00;;;;;;5004720;28;20460;-71
2023/07/20 12:32:32;;;;;;;4.40;2.00;;;28.60;1.00;;;;;;5003950;28;21023;-70
2023/07/20 12:35:00;;;;;;;5.30;1.90;;;28.50;1.00;;;;;;5005101;28;20492;-70
2023/07/20 12:37:27;;;;;;;6.43;2.40;;;28.40;1.00;;;;;;5006535;28;20464;-70
2023/07/20 12:39:53;;;;;;;4.90;2.40;;;28.40;1.00;;;;;;5004226;28;20465;-70
2023/07/20 12:42:20;;;;;;;4.20;1.90;;;28.40;1.00;;;;;;5003848;28;20464;-70
2023/07/20 12:44:47;;;;;;;5.40;2.17;;;28.40;1.00;;;;;;5000627;28;20479;-72
2023/07/20 12:47:13;;;;;;;5.73;2.20;;;28.40;1.00;;;;;;5004290;28;21781;-68
2023/07/20 12:49:45;;;;;;;5.67;2.20;;;28.30;1.00;;;;;;5007177;28;20468;-69
2023/07/20 12:52:11;;;;;;;4.67;1.87;;;28.30;1.00;;;;;;5011139;28;20538;-69
2023/07/20 12:54:38;;;;;;;10.40;2.20;;;28.20;1.00;;;;;;5011852;28;20495;-68
2023/07/20 12:57:05;;;;;;;7.77;2.17;;;28.10;1.00;;;;;;5004641;28;20856;-69
2023/07/20 12:59:32;;;;;;;4.50;1.90;;;28.00;1.00;;;;;;5005804;28;20467;-69